createdAt,value
2018-09-02T00:00:25.217Z,13.89
2018-09-02T00:02:54.194Z,13.96
2018-09-02T00:05:23.211Z,14.01
2018-09-02T00:07:52.301Z,14.02
2018-09-02T00:10:21.324Z,14.09
2018-09-02T00:12:50.375Z,14.18
2018-09-02T00:15:19.373Z,14.20
2018-09-02T00:17:56.915Z,14.25
2018-09-02T00:20:25.972Z,14.30
2018-09-02T00:22:54.898Z,14.30
2018-09-02T00:25:24.445Z,14.27
2018-09-02T00:27:53.433Z,14.24
2018-09-02T00:30:22.520Z,14.20
2018-09-02T00:32:51.845Z,14.18
2018-09-02T00:35:20.865Z,14.12
2018-09-02T00:37:49.956Z,14.18
2018-09-02T00:40:19.077Z,14.22
2018-09-02T00:42:48.070Z,14.27
2018-09-02T00:45:17.095Z,14.30
2018-09-02T00:47:46.088Z,14.32
2018-09-02T00:50:15.107Z,14.41
2018-09-02T00:52:44.127Z,14.47
2018-09-02T00:55:13.125Z,14.53
2018-09-02T00:57:42.184Z,14.55
2018-09-02T01:00:11.187Z,14.58
2018-09-02T01:02:40.295Z,14.64
2018-09-02T01:05:09.323Z,14.65
2018-09-02T01:07:38.327Z,14.65
2018-09-02T01:10:07.369Z,14.81
2018-09-02T01:12:36.364Z,14.90
2018-09-02T01:15:05.370Z,14.88
2018-09-02T01:17:34.383Z,14.96
2018-09-02T01:20:03.415Z,14.98
2018-09-02T01:22:32.517Z,14.99
2018-09-02T01:25:01.480Z,15.00
2018-09-02T01:27:30.516Z,15.05
2018-09-02T01:29:59.516Z,15.04
2018-09-02T01:32:28.534Z,15.06
2018-09-02T01:34:57.549Z,15.06
2018-09-02T01:37:26.591Z,15.05
2018-09-02T01:39:55.682Z,15.13
2018-09-02T01:42:24.691Z,15.20
2018-09-02T01:44:53.754Z,15.16
2018-09-02T01:47:22.771Z,15.19
2018-09-02T01:49:52.079Z,15.19
2018-09-02T01:52:21.084Z,15.23
2018-09-02T01:54:50.160Z,15.26
2018-09-02T01:57:19.182Z,15.34
2018-09-02T01:59:48.275Z,15.38
2018-09-02T02:02:17.307Z,15.41
2018-09-02T02:04:46.334Z,15.45
2018-09-02T02:07:15.323Z,15.49
2018-09-02T02:09:44.340Z,15.50
2018-09-02T02:12:13.356Z,15.57
2018-09-02T02:14:42.409Z,15.70
2018-09-02T02:17:12.031Z,15.78
2018-09-02T02:19:41.075Z,15.74
2018-09-02T02:22:10.090Z,15.84
2018-09-02T02:24:39.145Z,15.90
2018-09-02T02:27:08.251Z,15.88
2018-09-02T02:29:37.542Z,15.97
2018-09-02T02:32:06.543Z,15.94
2018-09-02T02:34:35.896Z,15.92
2018-09-02T02:37:05.020Z,15.85
2018-09-02T02:39:34.024Z,15.75
2018-09-02T02:42:03.172Z,15.71
2018-09-02T02:44:32.199Z,15.66
2018-09-02T02:47:01.291Z,15.63
2018-09-02T02:49:30.305Z,15.49
2018-09-02T02:51:59.304Z,15.46
2018-09-02T02:54:28.399Z,15.41
2018-09-02T02:56:57.438Z,15.31
2018-09-02T02:59:26.444Z,15.30
2018-09-02T03:01:55.469Z,15.27
2018-09-02T03:04:24.509Z,15.34
2018-09-02T03:06:53.551Z,15.40
2018-09-02T03:09:22.549Z,15.40
2018-09-02T03:11:51.546Z,15.38
2018-09-02T03:14:20.582Z,15.42
2018-09-02T03:16:49.582Z,15.47
2018-09-02T03:19:18.718Z,15.47
2018-09-02T03:21:47.719Z,15.57
2018-09-02T03:24:16.728Z,15.56
2018-09-02T03:26:45.759Z,15.63
2018-09-02T03:29:14.758Z,15.64
2018-09-02T03:31:43.838Z,15.61
2018-09-02T03:34:12.844Z,15.58
2018-09-02T03:36:41.889Z,15.58
2018-09-02T03:39:11.266Z,15.56
2018-09-02T03:41:40.286Z,15.47
2018-09-02T03:44:09.311Z,15.55
2018-09-02T03:46:38.327Z,15.45
2018-09-02T03:49:07.351Z,15.38
2018-09-02T03:51:36.364Z,15.37
2018-09-02T03:54:06.123Z,15.39
2018-09-02T03:56:35.563Z,15.36
2018-09-02T03:59:04.586Z,15.33
2018-09-02T04:01:33.629Z,15.28
2018-09-02T04:04:02.859Z,15.25
2018-09-02T04:06:31.916Z,15.28
2018-09-02T04:09:00.981Z,15.24
2018-09-02T04:11:30.069Z,15.16
2018-09-02T04:13:58.995Z,15.02
2018-09-02T04:16:28.015Z,14.93
2018-09-02T04:18:57.051Z,14.83
2018-09-02T04:21:26.064Z,14.77
2018-09-02T04:23:55.096Z,14.72
2018-09-02T04:26:24.095Z,14.71
2018-09-02T04:28:53.470Z,14.69
2018-09-02T04:31:22.728Z,14.70
2018-09-02T04:33:51.768Z,14.72
2018-09-02T04:36:20.764Z,14.77
2018-09-02T04:38:49.770Z,14.70
2018-09-02T04:41:18.788Z,14.69
2018-09-02T04:43:47.959Z,14.66
2018-09-02T04:46:16.959Z,14.64
2018-09-02T04:48:45.972Z,14.60
2018-09-02T04:51:15.923Z,14.60
2018-09-02T04:53:45.029Z,14.67
2018-09-02T04:56:14.033Z,14.72
2018-09-02T04:58:43.083Z,14.71
2018-09-02T05:01:12.080Z,14.68
2018-09-02T05:03:41.089Z,14.70
2018-09-02T05:06:10.114Z,14.71
2018-09-02T05:08:39.263Z,14.72
2018-09-02T05:11:08.319Z,14.77
2018-09-02T05:13:37.331Z,14.76
2018-09-02T05:16:06.340Z,14.70
2018-09-02T05:18:35.352Z,14.65
2018-09-02T05:21:04.382Z,14.69
2018-09-02T05:23:33.418Z,14.66
2018-09-02T05:26:02.450Z,14.74
2018-09-02T05:28:31.486Z,14.70
2018-09-02T05:31:00.585Z,14.78
2018-09-02T05:33:29.954Z,14.78
2018-09-02T05:35:58.964Z,14.74
2018-09-02T05:38:27.971Z,14.71
2018-09-02T05:40:56.980Z,14.73
2018-09-02T05:43:26.032Z,14.70
2018-09-02T05:45:55.031Z,14.71
2018-09-02T05:48:24.072Z,14.77
2018-09-02T05:50:53.067Z,14.79
2018-09-02T05:53:22.064Z,14.88
2018-09-02T05:55:51.107Z,14.94
2018-09-02T05:58:20.135Z,14.96
2018-09-02T06:00:49.207Z,15.01
2018-09-02T06:03:18.304Z,15.03
2018-09-02T06:05:47.422Z,15.20
2018-09-02T06:08:16.468Z,15.12
2018-09-02T06:10:45.492Z,15.13
2018-09-02T06:13:14.532Z,15.31
2018-09-02T06:15:43.646Z,15.40
2018-09-02T06:18:12.652Z,15.37
2018-09-02T06:20:41.685Z,15.44
2018-09-02T06:23:10.779Z,15.49
2018-09-02T06:25:39.792Z,15.69
2018-09-02T06:28:08.815Z,15.78
2018-09-02T06:30:37.827Z,15.92
2018-09-02T06:33:06.855Z,16.19
2018-09-02T06:35:35.859Z,16.54
2018-09-02T06:38:04.837Z,16.75
2018-09-02T06:40:33.859Z,16.99
2018-09-02T06:43:02.876Z,17.30
2018-09-02T06:45:31.910Z,17.77
2018-09-02T06:48:00.964Z,17.93
2018-09-02T06:50:29.971Z,18.14
2018-09-02T06:52:58.983Z,18.06
2018-09-02T06:55:27.987Z,17.84
2018-09-02T06:57:57.030Z,17.61
2018-09-02T07:00:26.023Z,17.64
2018-09-02T07:02:55.044Z,17.58
2018-09-02T07:05:24.035Z,17.66
2018-09-02T07:07:53.060Z,17.73
2018-09-02T07:10:22.070Z,17.59
2018-09-02T07:12:51.103Z,17.71
2018-09-02T07:15:20.143Z,17.67
2018-09-02T07:17:49.143Z,17.69
2018-09-02T07:20:18.160Z,17.63
2018-09-02T07:22:47.188Z,17.62
2018-09-02T07:25:16.182Z,17.57
2018-09-02T07:27:45.211Z,17.54
2018-09-02T07:30:14.323Z,17.72
2018-09-02T07:32:43.799Z,17.76
2018-09-02T07:35:12.935Z,17.93
2018-09-02T07:37:41.974Z,17.82
2018-09-02T07:40:10.997Z,17.89
2018-09-02T07:42:40.095Z,17.94
2018-09-02T07:45:09.665Z,18.22
2018-09-02T07:47:38.693Z,18.22
2018-09-02T07:50:07.696Z,18.51
2018-09-02T07:52:36.952Z,18.42
2018-09-02T07:55:06.366Z,18.11
2018-09-02T07:57:35.364Z,18.29
2018-09-02T08:00:05.065Z,18.51
2018-09-02T08:02:34.076Z,18.43
2018-09-02T08:05:03.450Z,18.57
2018-09-02T08:07:32.452Z,18.73
2018-09-02T08:10:01.456Z,18.48
2018-09-02T08:12:30.562Z,18.46
2018-09-02T08:14:59.483Z,18.12
2018-09-02T08:17:28.515Z,18.32
2018-09-02T08:19:57.885Z,18.35
2018-09-02T08:22:27.749Z,18.28
2018-09-02T08:24:56.756Z,18.53
2018-09-02T08:27:25.806Z,18.50
2018-09-02T08:29:55.388Z,18.60
2018-09-02T08:32:24.420Z,18.62
2018-09-02T08:34:53.481Z,18.74
2018-09-02T08:37:22.481Z,18.76
2018-09-02T08:39:51.516Z,18.93
2018-09-02T08:42:20.555Z,18.75
2018-09-02T08:44:49.600Z,18.94
2018-09-02T08:47:18.621Z,18.85
2018-09-02T08:49:47.625Z,18.91
2018-09-02T08:52:16.654Z,18.93
2018-09-02T08:54:45.719Z,18.94
2018-09-02T08:57:14.852Z,18.92
2018-09-02T08:59:43.855Z,19.00
2018-09-02T09:02:12.868Z,19.09
2018-09-02T09:04:42.035Z,19.00
2018-09-02T09:07:11.103Z,19.18
2018-09-02T09:09:40.124Z,19.14
2018-09-02T09:12:09.136Z,18.93
2018-09-02T09:14:38.140Z,18.67
2018-09-02T09:17:07.216Z,18.64
2018-09-02T09:19:36.183Z,18.73
2018-09-02T09:22:05.215Z,18.53
2018-09-02T09:24:34.234Z,18.42
2018-09-02T09:27:03.335Z,18.54
2018-09-02T09:29:32.367Z,18.69
2018-09-02T09:32:01.711Z,18.78
2018-09-02T09:34:30.744Z,18.76
2018-09-02T09:36:59.790Z,18.80
2018-09-02T09:39:28.771Z,18.86
2018-09-02T09:41:57.899Z,18.78
2018-09-02T09:44:26.971Z,18.89
2018-09-02T09:46:56.007Z,18.84
2018-09-02T09:49:25.011Z,18.52
2018-09-02T09:51:54.019Z,18.51
2018-09-02T09:54:23.080Z,18.57
2018-09-02T09:56:52.165Z,18.62
2018-09-02T09:59:21.240Z,18.48
2018-09-02T10:01:50.209Z,18.37
2018-09-02T10:04:19.224Z,18.42
2018-09-02T10:06:48.247Z,18.67
2018-09-02T10:09:17.259Z,18.63
2018-09-02T10:11:46.317Z,18.74
2018-09-02T10:14:15.299Z,18.77
2018-09-02T10:16:44.704Z,18.81
2018-09-02T10:19:13.731Z,18.96
2018-09-02T10:21:42.935Z,18.82
2018-09-02T10:24:11.966Z,18.87
2018-09-02T10:26:40.975Z,19.00
2018-09-02T10:29:10.003Z,19.01
2018-09-02T10:31:39.007Z,19.09
2018-09-02T10:34:08.076Z,19.06
2018-09-02T10:36:37.082Z,19.27
2018-09-02T10:39:07.459Z,19.27
2018-09-02T10:41:36.684Z,19.33
2018-09-02T10:44:05.646Z,19.52
2018-09-02T10:46:34.642Z,19.46
2018-09-02T10:49:03.703Z,19.54
2018-09-02T10:51:32.728Z,19.71
2018-09-02T10:54:02.135Z,19.72
2018-09-02T10:56:31.148Z,19.79
2018-09-02T10:59:00.171Z,19.83
2018-09-02T11:01:29.179Z,20.21
2018-09-02T11:03:58.224Z,20.18
2018-09-02T11:06:27.219Z,19.95
2018-09-02T11:08:56.250Z,19.90
2018-09-02T11:11:25.243Z,19.98
2018-09-02T11:13:54.466Z,19.75
2018-09-02T11:16:23.382Z,19.73
2018-09-02T11:18:52.399Z,19.50
2018-09-02T11:21:21.747Z,19.50
2018-09-02T11:23:50.832Z,19.55
2018-09-02T11:26:19.843Z,19.71
2018-09-02T11:28:48.874Z,19.64
2018-09-02T11:31:17.852Z,19.64
2018-09-02T11:33:46.874Z,19.66
2018-09-02T11:36:15.855Z,19.74
2018-09-02T11:38:45.168Z,19.76
2018-09-02T11:41:14.199Z,19.99
2018-09-02T11:43:43.275Z,20.15
2018-09-02T11:46:12.298Z,20.15
2018-09-02T11:48:41.291Z,20.22
2018-09-02T11:51:10.325Z,20.24
2018-09-02T11:53:39.784Z,20.36
2018-09-02T11:56:08.848Z,20.29
2018-09-02T11:58:38.615Z,20.24
2018-09-02T12:01:08.284Z,20.06
2018-09-02T12:03:37.979Z,19.98
2018-09-02T12:06:07.113Z,20.04
2018-09-02T12:08:36.156Z,20.04
2018-09-02T12:11:05.484Z,20.05
2018-09-02T12:13:34.499Z,20.14
2018-09-02T12:16:03.523Z,20.19
2018-09-02T12:18:32.535Z,20.29
2018-09-02T12:21:02.399Z,20.35
2018-09-02T12:23:31.693Z,20.45
2018-09-02T12:26:01.240Z,20.53
2018-09-02T12:28:33.297Z,20.57
2018-09-02T12:31:02.415Z,20.67
2018-09-02T12:33:32.496Z,20.67
2018-09-02T12:36:01.848Z,20.63
2018-09-02T12:38:31.610Z,20.72
2018-09-02T12:41:01.358Z,20.78
2018-09-02T12:43:30.423Z,20.69
2018-09-02T12:46:00.802Z,20.66
2018-09-02T12:48:30.101Z,20.67
2018-09-02T12:50:59.826Z,20.41
2018-09-02T12:53:29.256Z,20.19
2018-09-02T12:55:58.250Z,20.20
2018-09-02T12:58:27.259Z,20.13
2018-09-02T13:00:56.304Z,20.13
2018-09-02T13:03:25.332Z,20.32
2018-09-02T13:05:54.328Z,20.55
2018-09-02T13:08:23.439Z,20.77
2018-09-02T13:10:52.455Z,20.86
2018-09-02T13:13:21.591Z,21.11
2018-09-02T13:15:50.903Z,21.06
2018-09-02T13:18:19.932Z,21.03
2018-09-02T13:20:49.213Z,20.93
2018-09-02T13:23:18.228Z,20.78
2018-09-02T13:25:47.404Z,20.73
2018-09-02T13:28:16.423Z,20.86
2018-09-02T13:30:45.423Z,20.65
2018-09-02T13:33:14.448Z,20.69
2018-09-02T13:35:43.478Z,20.62
2018-09-02T13:38:12.480Z,20.62
2018-09-02T13:40:41.516Z,20.55
2018-09-02T13:43:10.588Z,20.31
2018-09-02T13:45:39.817Z,20.23
2018-09-02T13:48:08.824Z,20.29
2018-09-02T13:50:37.845Z,20.17
2018-09-02T13:53:06.909Z,20.22
2018-09-02T13:55:35.955Z,20.09
2018-09-02T13:58:05.079Z,19.92
2018-09-02T14:00:34.135Z,19.97
2018-09-02T14:03:03.131Z,19.83
2018-09-02T14:05:32.266Z,19.82
2018-09-02T14:08:01.421Z,19.91
2018-09-02T14:10:30.368Z,20.01
2018-09-02T14:12:59.811Z,19.94
2018-09-02T14:15:28.827Z,19.84
2018-09-02T14:17:57.843Z,19.83
2018-09-02T14:20:26.863Z,19.88
2018-09-02T14:22:55.859Z,19.82
2018-09-02T14:25:25.156Z,19.72
2018-09-02T14:27:54.145Z,19.60
2018-09-02T14:30:23.118Z,19.63
2018-09-02T14:32:52.155Z,19.52
2018-09-02T14:35:21.189Z,19.56
2018-09-02T14:37:50.207Z,19.51
2018-09-02T14:40:19.223Z,19.46
2018-09-02T14:42:48.231Z,19.43
2018-09-02T14:45:17.561Z,19.53
2018-09-02T14:47:46.703Z,19.44
2018-09-02T14:50:16.035Z,19.42
2018-09-02T14:52:45.051Z,19.28
2018-09-02T14:55:14.044Z,19.26
2018-09-02T14:57:43.056Z,19.22
2018-09-02T15:00:12.076Z,19.32
2018-09-02T15:02:41.151Z,19.26
2018-09-02T15:05:10.729Z,19.20
2018-09-02T15:07:39.737Z,19.30
2018-09-02T15:10:08.820Z,19.33
2018-09-02T15:12:37.802Z,19.23
2018-09-02T15:15:06.887Z,19.22
2018-09-02T15:17:35.931Z,19.30
2018-09-02T15:20:05.225Z,19.27
2018-09-02T15:22:34.223Z,19.22
2018-09-02T15:25:03.255Z,19.28
2018-09-02T15:27:32.267Z,19.29
2018-09-02T15:30:01.274Z,19.33
2018-09-02T15:32:30.363Z,19.29
2018-09-02T15:34:59.457Z,19.37
2018-09-02T15:37:28.439Z,19.37
2018-09-02T15:39:57.451Z,19.42
2018-09-02T15:42:26.475Z,19.55
2018-09-02T15:44:55.471Z,19.51
2018-09-02T15:47:24.767Z,19.47
2018-09-02T15:49:53.832Z,19.46
2018-09-02T15:52:23.052Z,19.45
2018-09-02T15:54:52.366Z,19.35
2018-09-02T15:57:21.360Z,19.37
2018-09-02T15:59:50.504Z,19.25
2018-09-02T16:02:19.658Z,19.27
2018-09-02T16:04:48.656Z,19.20
2018-09-02T16:07:17.782Z,19.18
2018-09-02T16:09:46.787Z,19.14
2018-09-02T16:12:15.797Z,19.17
2018-09-02T16:14:44.948Z,19.14
2018-09-02T16:17:13.964Z,19.04
2018-09-02T16:19:42.947Z,19.05
2018-09-02T16:22:12.250Z,18.98
2018-09-02T16:24:41.251Z,18.88
2018-09-02T16:27:10.251Z,18.90
2018-09-02T16:29:39.414Z,18.86
2018-09-02T16:32:08.262Z,18.84
2018-09-02T16:34:37.304Z,18.91
2018-09-02T16:37:07.572Z,18.83
2018-09-02T16:39:36.616Z,18.66
2018-09-02T16:42:05.636Z,18.57
2018-09-02T16:44:34.871Z,18.58
2018-09-02T16:47:03.877Z,18.58
2018-09-02T16:49:33.339Z,18.61
2018-09-02T16:52:02.380Z,18.60
2018-09-02T16:54:32.228Z,18.55
2018-09-02T16:57:02.007Z,18.50
2018-09-02T16:59:31.627Z,18.54
2018-09-02T17:02:01.171Z,18.51
2018-09-02T17:04:32.460Z,18.49
2018-09-02T17:07:01.464Z,18.48
2018-09-02T17:09:30.495Z,18.42
2018-09-02T17:11:59.765Z,18.46
2018-09-02T17:14:28.789Z,18.47
2018-09-02T17:16:57.891Z,18.52
2018-09-02T17:19:29.375Z,18.45
2018-09-02T17:21:58.415Z,18.33
2018-09-02T17:24:27.415Z,18.39
2018-09-02T17:26:56.479Z,18.29
2018-09-02T17:29:26.207Z,18.31
2018-09-02T17:31:58.107Z,18.32
2018-09-02T17:34:27.710Z,18.28
2018-09-02T17:36:56.737Z,18.34
2018-09-02T17:39:26.262Z,18.33
2018-09-02T17:41:56.531Z,18.33
2018-09-02T17:44:25.556Z,18.24
2018-09-02T17:46:54.895Z,18.20
2018-09-02T17:49:23.967Z,18.19
2018-09-02T17:51:52.968Z,18.15
2018-09-02T17:54:21.987Z,18.13
2018-09-02T17:56:51.120Z,18.10
2018-09-02T17:59:20.254Z,18.09
2018-09-02T18:01:49.619Z,18.06
2018-09-02T18:04:19.870Z,18.05
2018-09-02T18:06:48.903Z,17.99
2018-09-02T18:09:18.066Z,17.93
2018-09-02T18:11:47.080Z,17.90
2018-09-02T18:14:16.139Z,17.90
2018-09-02T18:16:45.137Z,17.84
2018-09-02T18:19:14.132Z,17.79
2018-09-02T18:21:43.163Z,17.74
2018-09-02T18:24:12.171Z,17.76
2018-09-02T18:26:41.240Z,17.83
2018-09-02T18:29:10.243Z,17.86
2018-09-02T18:31:39.235Z,17.79
2018-09-02T18:34:08.298Z,17.78
2018-09-02T18:36:37.382Z,17.76
2018-09-02T18:39:08.984Z,17.76
2018-09-02T18:41:42.634Z,17.76
2018-09-02T18:44:16.939Z,17.74
2018-09-02T18:46:45.944Z,17.73
2018-09-02T18:49:14.944Z,17.76
2018-09-02T18:51:43.966Z,17.69
2018-09-02T18:54:13.014Z,17.69
2018-09-02T18:56:42.107Z,17.69
2018-09-02T18:59:11.115Z,17.65
2018-09-02T19:01:40.187Z,17.57
2018-09-02T19:04:09.239Z,17.53
2018-09-02T19:06:38.227Z,17.49
2018-09-02T19:09:08.398Z,17.47
2018-09-02T19:11:37.387Z,17.43
2018-09-02T19:14:06.396Z,17.41
2018-09-02T19:16:35.495Z,17.44
2018-09-02T19:19:04.498Z,17.37
2018-09-02T19:21:33.916Z,17.34
2018-09-02T19:24:02.957Z,17.33
2018-09-02T19:26:32.141Z,17.29
2018-09-02T19:29:01.157Z,17.27
2018-09-02T19:31:30.256Z,17.25
2018-09-02T19:33:59.419Z,17.23
2018-09-02T19:36:28.416Z,17.24
2018-09-02T19:38:57.816Z,17.24
2018-09-02T19:41:26.899Z,17.28
2018-09-02T19:43:55.951Z,17.32
2018-09-02T19:46:24.996Z,17.23
2018-09-02T19:48:53.997Z,17.33
2018-09-02T19:51:22.984Z,17.19
2018-09-02T19:53:52.007Z,17.16
2018-09-02T19:56:21.011Z,17.13
2018-09-02T19:58:50.055Z,17.09
2018-09-02T20:01:19.038Z,17.13
2018-09-02T20:03:48.106Z,17.10
2018-09-02T20:06:17.140Z,17.06
2018-09-02T20:08:46.240Z,17.07
2018-09-02T20:11:15.379Z,17.06
2018-09-02T20:13:44.363Z,17.04
2018-09-02T20:16:13.459Z,17.04
2018-09-02T20:18:42.493Z,17.02
2018-09-02T20:21:11.468Z,17.01
2018-09-02T20:23:40.841Z,17.03
2018-09-02T20:26:09.814Z,16.99
2018-09-02T20:28:38.807Z,17.00
2018-09-02T20:31:07.832Z,16.98
2018-09-02T20:33:36.850Z,16.97
2018-09-02T20:36:06.152Z,17.00
2018-09-02T20:38:35.277Z,17.06
2018-09-02T20:41:04.265Z,17.06
2018-09-02T20:43:33.276Z,16.97
2018-09-02T20:46:02.272Z,16.93
2018-09-02T20:48:31.387Z,16.83
2018-09-02T20:51:00.416Z,16.71
2018-09-02T20:53:29.455Z,16.64
2018-09-02T20:55:58.485Z,16.58
2018-09-02T20:58:27.499Z,16.53
2018-09-02T21:00:56.628Z,16.52
2018-09-02T21:03:25.631Z,16.53
2018-09-02T21:05:54.969Z,16.51
2018-09-02T21:08:24.053Z,16.49
2018-09-02T21:10:53.178Z,16.49
2018-09-02T21:13:22.203Z,16.47
2018-09-02T21:15:51.189Z,16.44
2018-09-02T21:18:20.503Z,16.36
2018-09-02T21:20:49.551Z,16.42
2018-09-02T21:23:18.539Z,16.38
2018-09-02T21:25:47.559Z,16.32
2018-09-02T21:28:16.631Z,16.37
2018-09-02T21:30:45.954Z,16.39
2018-09-02T21:33:14.943Z,16.34
2018-09-02T21:35:43.936Z,16.33
2018-09-02T21:38:12.956Z,16.26
2018-09-02T21:40:42.040Z,16.23
2018-09-02T21:43:11.079Z,16.20
2018-09-02T21:45:40.071Z,16.10
2018-09-02T21:48:09.066Z,16.06
2018-09-02T21:50:38.080Z,16.12
2018-09-02T21:53:07.422Z,16.09
2018-09-02T21:55:36.526Z,16.03
2018-09-02T21:58:05.657Z,15.96
2018-09-02T22:00:34.690Z,16.04
2018-09-02T22:03:03.688Z,15.98
2018-09-02T22:05:32.706Z,15.98
2018-09-02T22:08:01.742Z,15.97
2018-09-02T22:10:30.735Z,15.97
2018-09-02T22:12:59.866Z,15.95
2018-09-02T22:15:28.862Z,15.91
2018-09-02T22:17:57.867Z,15.98
2018-09-02T22:20:26.879Z,15.97
2018-09-02T22:22:55.875Z,16.01
2018-09-02T22:25:24.967Z,16.04
2018-09-02T22:27:53.908Z,15.95
2018-09-02T22:30:22.917Z,16.03
2018-09-02T22:32:51.943Z,16.01
2018-09-02T22:35:20.971Z,16.08
2018-09-02T22:37:49.998Z,16.30
2018-09-02T22:40:19.030Z,16.33
2018-09-02T22:42:48.068Z,16.26
2018-09-02T22:45:17.080Z,16.20
2018-09-02T22:47:46.124Z,16.19
2018-09-02T22:50:15.127Z,16.14
2018-09-02T22:52:44.123Z,16.14
2018-09-02T22:55:13.256Z,16.08
2018-09-02T22:57:42.305Z,16.10
2018-09-02T23:00:11.296Z,16.08
2018-09-02T23:02:40.302Z,16.13
2018-09-02T23:05:09.315Z,16.07
2018-09-02T23:07:38.466Z,16.07
2018-09-02T23:10:07.468Z,16.05
2018-09-02T23:12:36.501Z,16.09
2018-09-02T23:15:06.071Z,16.17
2018-09-02T23:17:35.105Z,16.17
2018-09-02T23:20:04.416Z,16.15
2018-09-02T23:22:33.411Z,16.15
2018-09-02T23:25:02.754Z,16.12
2018-09-02T23:27:31.747Z,16.06
2018-09-02T23:30:00.777Z,16.13
2018-09-02T23:32:29.794Z,16.00
2018-09-02T23:34:58.783Z,16.01
2018-09-02T23:37:27.820Z,15.96
2018-09-02T23:39:56.819Z,15.95
2018-09-02T23:42:25.845Z,15.92
2018-09-02T23:44:54.839Z,15.92
2018-09-02T23:47:23.818Z,15.98
2018-09-02T23:49:52.823Z,15.92
2018-09-02T23:52:21.826Z,15.93
2018-09-02T23:54:50.855Z,15.94
2018-09-02T23:57:19.843Z,15.90
2018-09-02T23:59:48.827Z,15.88
